Time;durP1;ratioP1;P1;durP2;ratioP2;P2;SDS_P1;SDS_P2;PMS_P1;PMS_P2;Temp;Humidity;BMP_temperature;BMP_pressure;BME280_temperature;BME280_humidity;BME280_pressure;Samples;Min_cycle;Max_cycle;Signal;HPM_P1;HPM_P2
2021/03/11 00:01:06;;;;;;;;;;;7.10;91.00;;;;;;6214984;23;19915;-89
2021/03/11 00:04:09;;;;;;;;;;;;;;;;;;;;;
2021/03/11 00:07:10;;;;;;;;;;;;;;;;;;;;;
2021/03/11 00:16:30;;;;;;;;;;;;;;;;;;;;;
2021/03/11 00:22:10;;;;;;;;;;;7.10;90.90;;;;;;6204376;23;19910;-86
2021/03/11 00:25:05;;;;;;;;;;;;;;;;;;;;;
2021/03/11 00:27:57;;;;;;;;;;;;;;;;;;;;;
2021/03/11 00:34:18;;;;;;;;;;;;;;;;;;;;;
2021/03/11 00:43:21;;;;;;;;;;;7.20;90.90;;;;;;6151940;23;20259;-88
2021/03/11 00:46:21;;;;;;;;;;;;;;;;;;;;;
2021/03/11 01:16:28;;;;;;;;;;;;;;;;;;;;;
2021/03/11 01:19:04;;;;;;;;;;;;;;;;;;;;;
2021/03/11 01:21:56;;;;;;;;;;;7.30;90.90;;;;;;6139252;23;19991;-88
2021/03/11 01:34:47;;;;;;;;;;;;;;;;;;;;;
2021/03/11 01:40:54;;;;;;;;;;;;;;;;;;;;;
2021/03/11 01:43:48;;;;;;;;;;;7.40;91.10;;;;;;6248032;23;19978;-88
2021/03/11 01:46:33;;;;;;;;;;;7.40;91.10;;;;;;6224487;23;20271;-88
2021/03/11 01:49:32;;;;;;;;;;;;;;;;;;;;;
2021/03/11 01:52:16;;;;;;;;;;;7.50;91.20;;;;;;6240902;23;19974;-88
2021/03/11 01:55:05;;;;;;;;;;;7.50;91.20;;;;;;6247845;23;20009;-88
2021/03/11 02:01:07;;;;;;;;;;;7.50;91.20;;;;;;6261093;22;20241;-88
2021/03/11 02:03:46;;;;;;;;;;;7.50;91.20;;;;;;6235613;22;19906;-88
2021/03/11 02:06:27;;;;;;;;;;;;;;;;;;;;;
2021/03/11 02:12:08;;;;;;;;;;;7.50;91.30;;;;;;6199277;22;19899;-88
2021/03/11 02:15:01;;;;;;;;;;;7.50;91.40;;;;;;6233717;22;19903;-87
2021/03/11 02:18:09;;;;;;;;;;;7.50;91.30;;;;;;6233470;22;19899;-88
2021/03/11 02:20:37;;;;;;;;;;;7.50;91.30;;;;;;6277706;22;19934;-87
2021/03/11 02:23:22;;;;;;;;;;;;;;;;;;;;;
2021/03/11 02:32:00;;;;;;;;;;;7.60;91.40;;;;;;6252902;22;20293;-88
2021/03/11 02:34:58;;;;;;;;;;;;;;;;;;;;;
2021/03/11 02:40:23;;;;;;;;;;;;;;;;;;;;;
2021/03/11 02:43:15;;;;;;;;;;;7.70;91.50;;;;;;6282647;22;20286;-89
2021/03/11 02:45:57;;;;;;;;;;;;;;;;;;;;;
2021/03/11 02:52:20;;;;;;;;;;;;;;;;;;;;;
2021/03/11 02:55:17;;;;;;;;;;;7.60;91.60;;;;;;6260949;22;19978;-88
2021/03/11 02:58:01;;;;;;;;;;;7.70;91.90;;;;;;6227510;23;20392;-88
2021/03/11 03:00:59;;;;;;;;;;;;;;;;;;;;;
2021/03/11 03:03:55;;;;;;;;;;;;;;;;;;;;;
2021/03/11 03:12:44;;;;;;;;;;;7.70;92.00;;;;;;6258169;22;19899;-88
2021/03/11 03:15:28;;;;;;;;;;;7.80;92.00;;;;;;6250970;22;19899;-88
2021/03/11 03:21:18;;;;;;;;;;;7.80;92.00;;;;;;6273776;22;19953;-89
2021/03/11 03:24:13;;;;;;;;;;;;;;;;;;;;;
2021/03/11 03:26:53;;;;;;;;;;;7.80;92.00;;;;;;6276667;22;19989;-87
2021/03/11 03:29:39;;;;;;;;;;;7.80;92.00;;;;;;6277262;22;19973;-87
2021/03/11 03:41:18;;;;;;;;;;;;;;;;;;;;;
2021/03/11 03:44:00;;;;;;;;;;;;;;;;;;;;;
2021/03/11 03:49:56;;;;;;;;;;;8.00;92.20;;;;;;6135354;23;19905;-88
2021/03/11 03:55:33;;;;;;;;;;;8.00;92.30;;;;;;6147418;23;19936;-88
2021/03/11 04:01:22;;;;;;;;;;;;;;;;;;;;;
2021/03/11 04:04:10;;;;;;;;;;;8.00;92.40;;;;;;6153180;23;19980;-89
2021/03/11 04:16:03;;;;;;;;;;;;;;;;;;;;;
2021/03/11 04:18:51;;;;;;;;;;;;;;;;;;;;;
2021/03/11 04:21:53;;;;;;;;;;;;;;;;;;;;;
2021/03/11 04:24:34;;;;;;;;;;;8.10;92.70;;;;;;6278825;22;19975;-89
2021/03/11 04:27:48;;;;;;;;;;;8.10;92.60;;;;;;6227267;22;19943;-88
2021/03/11 04:33:33;;;;;;;;;;;;;;;;;;;;;
2021/03/11 04:42:31;;;;;;;;;;;8.20;92.70;;;;;;6289399;22;19907;-88
2021/03/11 04:45:35;;;;;;;;;;;;;;;;;;;;;
2021/03/11 04:48:42;;;;;;;;;;;8.20;92.70;;;;;;6287340;22;19942;-90
2021/03/11 05:03:58;;;;;;;;;;;;;;;;;;;;;
2021/03/11 05:06:49;;;;;;;;;;;;;;;;;;;;;
2021/03/11 18:11:48;;;;;;;;;;;;;;;;;;;;;
2021/03/11 18:18:04;;;;;;;;;;;;;;;;;;;;;
2021/03/11 18:33:06;;;;;;;;;;;8.80;79.50;;;;;;6005329;23;19906;-88
2021/03/11 18:36:08;;;;;;;;;;;;;;;;;;;;;
2021/03/11 18:38:56;;;;;;;;;;;8.90;79.60;;;;;;6006533;23;19993;-87
2021/03/11 18:42:01;;;;;;;;;;;;;;;;;;;;;
2021/03/11 18:44:46;;;;;;;;;;;8.80;79.70;;;;;;6194318;22;20300;-87
2021/03/11 18:48:00;;;;;;;;;;;;;;;;;;;;;
2021/03/11 19:00:09;;;;;;;;;;;;;;;;;;;;;
2021/03/11 19:03:11;;;;;;;;;;;8.80;80.30;;;;;;6129652;23;19987;-87
2021/03/11 19:06:27;;;;;;;;;;;;;;;;;;;;;
2021/03/11 19:12:01;;;;;;;;;;;;;;;;;;;;;
2021/03/11 19:14:40;;;;;;;;;;;;;;;;;;;;;
2021/03/11 19:29:55;;;;;;;;;;;8.70;79.90;;;;;;6093302;23;19913;-88
2021/03/11 19:32:50;;;;;;;;;;;8.60;79.80;;;;;;6092759;23;19905;-88
2021/03/11 19:45:05;;;;;;;;;;;;;;;;;;;;;
2021/03/11 19:47:37;;;;;;;;;;;8.50;79.00;;;;;;6275008;22;19998;-87
2021/03/11 19:50:23;;;;;;;;;;;8.50;78.90;;;;;;6273072;22;19949;-87
2021/03/11 19:53:15;;;;;;;;;;;8.40;78.90;;;;;;6240329;22;19899;-87
2021/03/11 19:56:13;;;;;;;;;;;8.40;78.90;;;;;;6220547;22;19905;-87
2021/03/11 19:59:09;;;;;;;;;;;;;;;;;;;;;
2021/03/11 20:05:10;;;;;;;;;;;;;;;;;;;;;
2021/03/11 20:14:23;;;;;;;;;;;;;;;;;;;;;
2021/03/11 20:17:10;;;;;;;;;;;8.20;79.00;;;;;;6252016;23;19923;-86
2021/03/11 20:19:55;;;;;;;;;;;8.20;78.90;;;;;;6225619;23;19930;-86
2021/03/11 20:22:42;;;;;;;;;;;8.20;79.00;;;;;;6208928;23;19899;-86
2021/03/11 20:25:26;;;;;;;;;;;;;;;;;;;;;
2021/03/11 20:31:23;;;;;;;;;;;8.20;79.40;;;;;;6146972;23;19944;-84
2021/03/11 20:37:31;;;;;;;;;;;8.20;79.50;;;;;;6150019;23;19912;-85
2021/03/11 20:40:09;;;;;;;;;;;;;;;;;;;;;
2021/03/11 20:43:10;;;;;;;;;;;;;;;;;;;;;
2021/03/11 20:45:31;;;;;;;;;;;8.00;79.60;;;;;;6241027;23;19899;-85
2021/03/11 20:48:10;;;;;;;;;;;;;;;;;;;;;
2021/03/11 20:50:39;;;;;;;;;;;8.00;79.90;;;;;;6244451;23;19982;-88
2021/03/11 20:53:25;;;;;;;;;;;;;;;;;;;;;
2021/03/11 20:56:14;;;;;;;;;;;7.90;80.00;;;;;;6242837;23;19978;-84
2021/03/11 20:58:53;;;;;;;;;;;7.90;80.20;;;;;;6243988;23;19904;-84
2021/03/11 21:04:32;;;;;;;;;;;7.90;80.50;;;;;;6179159;23;19903;-84
2021/03/11 21:07:18;;;;;;;;;;;;;;;;;;;;;
2021/03/11 21:10:07;;;;;;;;;;;7.90;80.50;;;;;;6242938;23;20043;-84
2021/03/11 21:12:49;;;;;;;;;;;7.90;80.70;;;;;;6242052;22;19903;-86
2021/03/11 21:21:15;;;;;;;;;;;7.80;81.00;;;;;;6223346;22;19911;-85
2021/03/11 21:24:16;;;;;;;;;;;7.90;81.10;;;;;;6269243;22;20218;-86
2021/03/11 21:26:51;;;;;;;;;;;7.90;81.20;;;;;;6243511;22;19935;-84
2021/03/11 21:29:24;;;;;;;;;;;7.80;81.20;;;;;;6267105;22;19941;-87
2021/03/11 21:32:03;;;;;;;;;;;;;;;;;;;;;
2021/03/11 21:34:49;;;;;;;;;;;7.80;81.40;;;;;;6244042;23;19986;-85
2021/03/11 21:37:37;;;;;;;;;;;7.80;81.50;;;;;;6242436;23;19900;-87
2021/03/11 21:40:40;;;;;;;;;;;7.80;81.50;;;;;;6229696;22;19907;-85
2021/03/11 21:43:21;;;;;;;;;;;7.80;81.60;;;;;;6242106;23;20054;-85
2021/03/11 21:46:00;;;;;;;;;;;;;;;;;;;;;
2021/03/11 21:48:45;;;;;;;;;;;;;;;;;;;;;
2021/03/11 21:54:12;;;;;;;;;;;7.80;81.80;;;;;;6237937;22;20325;-86
2021/03/11 21:56:48;;;;;;;;;;;7.80;82.40;;;;;;6241495;22;20326;-85
2021/03/11 21:59:21;;;;;;;;;;;7.80;81.80;;;;;;6265566;22;20310;-86
2021/03/11 22:02:08;;;;;;;;;;;;;;;;;;;;;
2021/03/11 22:07:46;;;;;;;;;;;7.80;81.90;;;;;;6262677;22;19953;-86
2021/03/11 22:10:50;;;;;;;;;;;7.80;81.90;;;;;;6228556;22;19986;-86
2021/03/11 22:13:33;;;;;;;;;;;7.80;82.00;;;;;;6269314;22;19904;-86
2021/03/11 22:16:06;;;;;;;;;;;7.80;82.00;;;;;;6273383;22;19942;-89
2021/03/11 22:19:00;;;;;;;;;;;7.80;82.00;;;;;;6245130;22;20223;-86
2021/03/11 22:22:07;;;;;;;;;;;7.80;82.10;;;;;;6240985;22;19929;-86
2021/03/11 22:24:55;;;;;;;;;;;7.90;82.10;;;;;;6270203;22;19910;-87
2021/03/11 22:27:42;;;;;;;;;;;7.90;82.20;;;;;;6273977;22;20301;-85
2021/03/11 22:30:19;;;;;;;;;;;7.90;83.00;;;;;;6273286;22;19934;-85
2021/03/11 22:32:53;;;;;;;;;;;7.80;82.60;;;;;;6274353;22;19903;-86
2021/03/11 22:35:32;;;;;;;;;;;;;;;;;;;;;
2021/03/11 22:40:56;;;;;;;;;;;7.80;83.40;;;;;;6263555;22;19899;-86
2021/03/11 22:43:31;;;;;;;;;;;7.80;83.60;;;;;;6248375;22;19902;-86
2021/03/11 22:49:32;;;;;;;;;;;;;;;;;;;;;
2021/03/11 22:52:36;;;;;;;;;;;7.70;84.70;;;;;;6273055;22;19994;-87
2021/03/11 22:55:06;;;;;;;;;;;7.70;84.80;;;;;;6252882;22;19982;-86
2021/03/11 22:57:47;;;;;;;;;;;;;;;;;;;;;
2021/03/11 23:00:37;;;;;;;;;;;7.70;85.10;;;;;;6274247;22;20277;-86
2021/03/11 23:03:38;;;;;;;;;;;7.70;85.00;;;;;;6230420;22;19907;-85
2021/03/11 23:06:31;;;;;;;;;;;7.70;85.20;;;;;;6246765;22;19903;-86
2021/03/11 23:08:57;;;;;;;;;;;7.70;85.40;;;;;;6246499;22;19917;-86
2021/03/11 23:11:32;;;;;;;;;;;7.70;85.50;;;;;;6247234;22;19982;-85
2021/03/11 23:14:09;;;;;;;;;;;7.60;85.90;;;;;;6273201;22;19899;-84
2021/03/11 23:16:52;;;;;;;;;;;7.60;86.20;;;;;;6273418;22;19899;-87
2021/03/11 23:19:23;;;;;;;;;;;7.60;86.20;;;;;;6270426;22;19899;-85
2021/03/11 23:22:03;;;;;;;;;;;7.60;86.30;;;;;;6273049;22;19907;-85
2021/03/11 23:27:24;;;;;;;;;;;7.60;86.40;;;;;;6276873;22;19899;-85
2021/03/11 23:32:38;;;;;;;;;;;7.50;86.60;;;;;;6276616;22;19906;-86
2021/03/11 23:35:15;;;;;;;;;;;7.60;86.80;;;;;;6275349;22;19899;-85
2021/03/11 23:37:52;;;;;;;;;;;7.50;86.80;;;;;;6276844;22;19899;-85
2021/03/11 23:40:27;;;;;;;;;;;7.50;86.80;;;;;;6277796;22;19899;-85
2021/03/11 23:43:13;;;;;;;;;;;7.50;86.80;;;;;;6248927;22;19903;-88
2021/03/11 23:45:44;;;;;;;;;;;7.60;87.40;;;;;;6247681;22;20327;-85
2021/03/11 23:48:18;;;;;;;;;;;7.50;86.70;;;;;;6273401;22;19911;-86
2021/03/11 23:51:06;;;;;;;;;;;7.60;86.60;;;;;;6270495;22;19899;-85
2021/03/11 23:53:33;;;;;;;;;;;7.50;86.60;;;;;;6274070;22;19902;-85
2021/03/11 23:56:06;;;;;;;;;;;7.60;86.50;;;;;;6276284;22;20446;-85
2021/03/11 23:58:34;;;;;;;;;;;7.60;86.30;;;;;;6273957;22;19914;-85
